EDT,Max TemperatureF,Mean TemperatureF,Min TemperatureF,Max Dew PointF,MeanDew PointF,Min DewpointF,Max Humidity, Mean Humidity, Min Humidity, Max Sea Level PressureIn, Mean Sea Level PressureIn, Min Sea Level PressureIn, Max VisibilityMiles, Mean VisibilityMiles, Min VisibilityMiles, Max Wind SpeedMPH, Mean Wind SpeedMPH, Max Gust SpeedMPH,PrecipitationIn, CloudCover, Events, WindDirDegrees
2013-4-1,24,20,17,19,17,14,100,88,64,29.99,29.85,29.61,10,3,0,30,18,37,0.00,8,,304
2013-4-2,26,22,17,21,17,12,100,85,59,30.17,30.06,29.97,10,6,1,24,10,34,0.01,8,,283
2013-4-3,35,24,12,21,15,5,100,66,28,30.36,30.28,30.17,10,10,5,17,7,24,0.00,2,,295
2013-4-4,39,32,26,34,28,21,100,81,56,30.19,29.98,29.87,10,9,1,18,9,28,0.01,6,,240
2013-4-5,30,26,21,25,19,14,86,73,59,30.21,30.13,29.96,10,10,9,20,10,26,0.00,1,,323
2013-4-6,33,25,17,32,25,16,100,91,64,30.20,30.01,29.63,10,8,1,28,9,36,0.04,6,,128
2013-4-7,37,34,32,34,31,28,100,90,75,30.03,29.70,29.40,10,8,2,26,14,36,0.06,8,,318
2013-4-8,37,32,26,36,31,25,100,90,75,30.04,29.95,29.86,10,9,3,21,7,28,0.05,8,,98
2013-4-9,39,36,32,39,34,30,100,97,87,30.10,30.06,30.00,10,8,1,13,5,20,0.01,8,,321
2013-4-10,39,34,30,32,26,19,100,78,49,30.15,30.11,30.06,10,10,10,16,7,21,0.00,0,,360
2013-4-11,33,28,24,27,18,12,100,62,44,30.18,30.08,29.96,10,10,1,25,14,37,0.00,3,,76
2013-4-12,32,28,24,30,27,23,100,95,86,29.95,29.72,29.65,10,4,0,24,16,33,0.05,8,,66
2013-4-13,35,30,24,32,28,25,100,92,75,29.85,29.71,29.66,10,7,0,10,3,,0.13,8,,281
2013-4-14,39,32,26,30,27,25,100,81,60,30.06,29.99,29.85,10,10,3,16,6,20,0.02,7,,217
2013-4-15,44,38,33,45,36,28,100,93,81,30.01,29.83,29.75,10,7,0,29,16,39,0.33,7,,129
2013-4-16,42,36,30,37,31,28,100,80,57,30.31,30.02,29.81,10,10,10,22,9,30,0.00,3,,282
2013-4-17,42,34,26,30,29,27,100,80,57,30.43,30.32,30.14,10,10,4,15,7,20,0.00,2,,84
2013-4-18,39,37,35,39,36,28,100,94,70,30.13,29.72,29.44,10,6,0,23,13,33,0.20,8,,93
2013-4-19,41,32,24,39,32,21,100,87,70,29.54,29.27,29.16,10,8,0,32,15,40,0.24,8,,207
2013-4-20,30,24,17,21,17,16,100,78,55,30.42,30.03,29.53,10,7,2,25,17,31,0.00,5,,312
2013-4-21,37,24,12,30,19,12,100,75,38,30.59,30.49,30.37,10,10,10,18,6,25,0.00,2,,140
2013-4-22,50,42,33,34,30,28,93,69,47,30.37,30.26,30.14,10,10,10,21,15,25,0.00,5,,127
2013-4-23,48,40,32,45,35,30,100,92,76,30.13,29.93,29.83,10,9,2,16,11,21,0.25,6,,130
2013-4-24,39,34,30,30,26,18,100,73,42,29.97,29.88,29.85,10,10,10,17,13,25,0.00,3,,320
2013-4-25,39,34,28,36,30,25,100,88,56,30.24,29.99,29.87,10,10,4,23,7,30,0.01,4,,172
2013-4-26,48,37,26,41,33,27,100,83,46,30.31,30.25,30.18,10,10,7,15,5,22,0.11,3,,151
2013-4-27,62,48,33,48,41,32,100,79,55,30.21,30.16,30.09,10,9,2,13,6,17,0.00,1,,155
2013-4-28,66,52,37,46,39,34,100,66,30,30.09,29.96,29.84,10,10,10,16,8,21,0.00,2,,116
2013-4-29,57,50,44,52,48,45,100,93,77,29.88,29.86,29.83,10,7,0,15,10,17,0.01,7,,129
2013-4-30,71,58,44,57,50,45,100,88,57,29.91,29.86,29.79,10,6,0,28,12,32,0.00,5,,114